Hauptseite
METAR-TAF:

METAR-TAF

Flughäfen :

Flughafen Nouakchott-Oumtounsy

Nouakchott, Mauretanien

Breite: 18-18-36N, Länge: 015-58-11W, Höhe: 3 m

Beobachtung

Neuester Wetterbericht von vor 32 Minuten, um 20:30 UTC
Wind 16 kt aus Nordwest
Temperatur 22°C
Luftfeuchtigkeit 65%
Luftdruck 1010 hPa
Sichtweite: 4500 m
Staubfegen

METAR: GQNO 202030Z 32016KT 4500 DRDU NSC 22/15 Q1010 NOSIG

Zeit: 21:02 (21:02 UTC)

Prognose

Neuester Wetterbericht von vor 4 Stunden und 2 Minuten, um 17:00 UTC
Gültige Prognose vom 20 um 18 UTC bis 21 um 24 UTC
Wind 14 kt aus Nord
Sichtweite: 8000 m

TAF: GQNO 201700Z 2018/2124 35014KT 8000 NSC

Wetterbeobachtungen und Prognosen von mehr als 4000 Flughäfen (METAR und TAF Bericht).

Die verfügbaren Stationen werden durch gelbe und rote Markierungen auf der Karte dargestellt.

Führen Sie die Maus auf sie, um den Namen der Station zu sehen.

Darauf klicken, um die Beobachtung von Wetterbeobachtungen und Prognosen zu sehen.

Um die Karte zu ändern : klicken Sie auf den grünen Tasten mit einem schwarzen Kreuz Zum Vergrößern, auf den grünen Button mit einem Gedankenstrich zu verkleinern, oder auf die grünen Pfeile für benachbarte Karten.


METAR-TAF: